Datos actuales meteorológicos del Aeropuerto de Valencia      LEVC Valencia



Temperatura
15°C Temperatura
9°C Punto de rocío
68% Humedad



Viento
5 KM/H
3 MPH
1 M/S
3 NUDO



120°
ESE
Condiciones actuales

Parcialmente nublado Parcialmente nublado
Presión 1012.92 (hPa) - 29.91 (inHg)
Visibilidad 6.2 (milla) - 10 (km)
✈️ Manises
Código de aeropuerto LEVC

localidad: Valencia
Distancia de Meteo Lliria: 18 (km)

Metar:
LEVC 292300Z 12003KT 9999 FEW040 15/09 Q1013 NOSIG

Hora: 30-03-2020 01:00 CEST

Follow @meteolliria2013